createdAt,value
2019-01-12T00:01:40.053Z,20.13
2019-01-12T00:04:36.976Z,17.13
2019-01-12T00:07:15.458Z,15.30
2019-01-12T00:12:33.042Z,22.80
2019-01-12T00:17:53.130Z,23.17
2019-01-12T00:25:51.655Z,17.83
2019-01-12T00:28:39.690Z,20.70
2019-01-12T00:31:27.683Z,19.77
2019-01-12T00:34:15.718Z,19.47
2019-01-12T00:36:45.434Z,17.20
2019-01-12T00:39:33.540Z,22.53
2019-01-12T00:42:21.559Z,17.23
2019-01-12T00:44:51.551Z,20.83
2019-01-12T00:47:39.625Z,24.53
2019-01-12T00:50:27.641Z,28.70
2019-01-12T00:52:56.663Z,22.83
2019-01-12T00:55:44.793Z,21.73
2019-01-12T00:58:32.800Z,23.40
2019-01-12T01:01:02.925Z,24.77
2019-01-12T01:03:50.915Z,24.10
2019-01-12T01:06:38.951Z,20.13
2019-01-12T01:09:26.939Z,26.63
2019-01-12T01:12:05.313Z,25.93
2019-01-12T01:17:25.905Z,27.63
2019-01-12T01:22:52.375Z,25.53
2019-01-12T01:33:27.899Z,24.27
2019-01-12T01:36:16.229Z,25.60
2019-01-12T01:42:01.588Z,28.27
2019-01-12T01:44:49.592Z,21.97
2019-01-12T01:47:37.648Z,25.13
2019-01-12T01:50:25.830Z,27.47
2019-01-12T01:53:13.958Z,24.07
2019-01-12T01:56:01.953Z,22.33
2019-01-12T01:58:31.267Z,21.23
2019-01-12T02:01:19.435Z,22.30
2019-01-12T02:04:07.504Z,22.03
2019-01-12T02:06:36.523Z,27.97
2019-01-12T02:09:24.580Z,22.70
2019-01-12T02:12:12.640Z,27.17
2019-01-12T02:14:54.856Z,24.73
2019-01-12T02:20:15.341Z,24.27
2019-01-12T02:22:44.384Z,26.00
2019-01-12T02:25:32.498Z,25.53
2019-01-12T02:31:28.238Z,25.37
2019-01-12T02:33:58.064Z,26.00
2019-01-12T02:36:27.328Z,25.00
2019-01-12T02:38:56.377Z,22.17
2019-01-12T02:41:26.047Z,21.97
2019-01-12T02:43:57.386Z,26.90
2019-01-12T02:46:26.427Z,25.93
2019-01-12T02:49:00.523Z,21.73
2019-01-12T02:51:29.871Z,21.87
2019-01-12T02:54:02.548Z,23.90
2019-01-12T02:56:32.236Z,22.80
2019-01-12T02:59:10.252Z,29.37
2019-01-12T03:01:39.262Z,25.73
2019-01-12T03:04:14.374Z,23.37
2019-01-12T03:06:43.356Z,26.37
2019-01-12T03:09:14.426Z,24.73
2019-01-12T03:11:43.748Z,26.63
2019-01-12T03:14:16.449Z,30.43
2019-01-12T03:16:45.424Z,28.93
2019-01-12T03:19:18.199Z,26.83
2019-01-12T03:21:48.744Z,25.97
2019-01-12T03:24:21.339Z,25.03
2019-01-12T03:26:51.298Z,27.27
2019-01-12T03:29:24.024Z,26.20
2019-01-12T03:31:53.121Z,23.63
2019-01-12T03:34:25.723Z,26.10
2019-01-12T03:36:55.411Z,28.43
2019-01-12T03:39:30.626Z,25.90
2019-01-12T03:42:00.363Z,21.87
2019-01-12T03:44:30.419Z,24.67
2019-01-12T03:47:18.512Z,23.93
2019-01-12T03:50:06.539Z,21.90
2019-01-12T03:52:54.581Z,22.43
2019-01-12T03:55:42.621Z,20.80
2019-01-12T03:58:44.625Z,23.10
2019-01-12T04:01:20.340Z,18.50
2019-01-12T04:06:27.613Z,18.13
2019-01-12T04:11:45.250Z,20.40
2019-01-12T04:22:43.399Z,14.97
2019-01-12T04:28:00.739Z,16.37
2019-01-12T04:33:18.044Z,18.67
2019-01-12T04:41:33.660Z,16.27
2019-01-12T04:44:12.006Z,16.10
2019-01-12T04:52:20.589Z,21.73
2019-01-12T04:57:51.321Z,26.40
2019-01-12T05:00:39.342Z,29.30
2019-01-12T05:03:27.410Z,21.87
2019-01-12T05:06:34.391Z,29.73
2019-01-12T05:09:22.438Z,27.20
2019-01-12T05:12:10.574Z,28.47
2019-01-12T05:14:58.561Z,28.80
2019-01-12T05:17:46.652Z,24.10
2019-01-12T05:20:34.659Z,22.67
2019-01-12T05:23:41.605Z,23.47
2019-01-12T05:37:33.308Z,17.70
2019-01-12T05:42:50.792Z,18.40
2019-01-12T05:48:28.016Z,17.67
2019-01-12T05:51:16.007Z,15.80
2019-01-12T05:54:04.105Z,14.97
2019-01-12T05:56:52.131Z,17.17
2019-01-12T05:59:54.049Z,15.47
2019-01-12T06:02:29.996Z,17.47
2019-01-12T06:05:18.140Z,13.77
2019-01-12T06:08:06.086Z,15.47
2019-01-12T06:10:54.190Z,16.63
2019-01-12T06:13:42.159Z,13.83
2019-01-12T06:19:29.051Z,17.40
2019-01-12T06:22:28.692Z,20.83
2019-01-12T06:25:06.774Z,16.93
2019-01-12T06:27:54.899Z,17.37
2019-01-12T06:33:13.143Z,16.67
2019-01-12T06:41:22.271Z,17.00
2019-01-12T06:49:43.512Z,24.17
2019-01-12T06:55:01.088Z,19.30
2019-01-12T07:05:40.113Z,26.20
2019-01-12T07:13:52.756Z,31.13
2019-01-12T07:16:31.040Z,30.80
2019-01-12T07:21:49.000Z,27.90
2019-01-12T07:27:06.411Z,33.10
2019-01-12T07:32:27.500Z,33.33
2019-01-12T07:37:45.059Z,34.43
2019-01-12T07:43:02.935Z,39.13
2019-01-12T07:48:26.385Z,40.57
2019-01-12T07:53:44.310Z,51.10
2019-01-12T07:59:02.090Z,37.37
2019-01-12T08:04:19.862Z,42.03
2019-01-12T08:09:29.848Z,39.60
2019-01-12T08:12:39.401Z,35.70
2019-01-12T08:15:27.577Z,32.80
2019-01-12T08:18:15.577Z,31.50
2019-01-12T08:20:45.600Z,31.63
2019-01-12T08:23:15.320Z,33.87
2019-01-12T08:25:45.025Z,34.37
2019-01-12T08:28:33.049Z,31.83
2019-01-12T08:31:21.107Z,33.27
2019-01-12T08:34:09.344Z,29.23
2019-01-12T08:36:39.039Z,29.27
2019-01-12T08:39:27.078Z,32.30
2019-01-12T08:42:19.469Z,27.10
2019-01-12T08:45:08.592Z,27.17
2019-01-12T08:47:37.586Z,29.83
2019-01-12T08:50:25.655Z,28.90
2019-01-12T08:53:34.677Z,26.80
2019-01-12T08:56:03.992Z,29.33
2019-01-12T08:58:33.020Z,28.33
2019-01-12T09:01:02.030Z,28.57
2019-01-12T09:03:50.101Z,28.33
2019-01-12T09:06:19.813Z,29.43
2019-01-12T09:09:07.834Z,30.27
2019-01-12T09:11:55.837Z,34.57
2019-01-12T09:14:44.570Z,27.10
2019-01-12T09:17:32.593Z,26.63
2019-01-12T09:20:01.928Z,23.07
2019-01-12T09:22:49.931Z,26.87
2019-01-12T09:25:38.645Z,27.20
2019-01-12T09:36:05.829Z,27.83
2019-01-12T09:38:35.549Z,25.63
2019-01-12T09:41:04.657Z,20.47
2019-01-12T09:43:34.693Z,20.23
2019-01-12T09:46:04.522Z,21.50
2019-01-12T09:48:52.548Z,24.10
2019-01-12T09:51:41.233Z,26.67
2019-01-12T09:54:29.284Z,28.30
2019-01-12T09:57:17.410Z,27.10
2019-01-12T10:00:24.356Z,27.67
2019-01-12T10:02:54.340Z,25.20
2019-01-12T10:05:43.060Z,24.63
2019-01-12T10:08:31.058Z,25.80
2019-01-12T10:11:00.115Z,24.40
2019-01-12T10:13:48.129Z,25.33
2019-01-12T10:16:36.182Z,26.43
2019-01-12T10:19:24.176Z,33.13
2019-01-12T10:24:53.496Z,30.47
2019-01-12T10:27:41.525Z,27.97
2019-01-12T10:30:12.873Z,28.77
2019-01-12T10:32:42.591Z,30.33
2019-01-12T10:35:13.026Z,28.40
2019-01-12T10:38:01.049Z,30.43
2019-01-12T10:40:30.079Z,37.53
2019-01-12T10:42:59.369Z,27.07
2019-01-12T10:45:48.081Z,26.47
2019-01-12T10:48:18.972Z,25.10
2019-01-12T10:50:50.280Z,26.77
2019-01-12T10:53:19.751Z,26.80
2019-01-12T10:55:49.451Z,26.70
2019-01-12T10:58:56.501Z,27.10
2019-01-12T11:01:44.491Z,25.67
2019-01-12T11:04:32.608Z,25.10
2019-01-12T11:07:20.609Z,23.70
2019-01-12T11:13:07.267Z,28.67
2019-01-12T11:15:56.009Z,23.67
2019-01-12T11:18:44.003Z,26.10
2019-01-12T11:21:32.039Z,21.73
2019-01-12T11:24:01.743Z,23.63
2019-01-12T11:26:31.468Z,23.90
2019-01-12T11:29:02.472Z,25.17
2019-01-12T11:34:11.224Z,23.40
2019-01-12T11:36:40.975Z,25.90
2019-01-12T11:39:13.172Z,27.30
2019-01-12T11:42:22.197Z,25.37
2019-01-12T11:44:51.911Z,21.50
2019-01-12T11:47:21.905Z,26.13
2019-01-12T11:49:51.984Z,23.17
2019-01-12T11:52:21.693Z,21.33
2019-01-12T11:54:51.009Z,25.47
2019-01-12T11:57:20.799Z,25.27
2019-01-12T11:59:49.802Z,31.60
2019-01-12T12:02:37.981Z,25.03
2019-01-12T12:05:26.208Z,27.20
2019-01-12T12:08:15.367Z,26.23
2019-01-12T12:11:04.083Z,26.23
2019-01-12T12:13:52.215Z,29.80
2019-01-12T12:16:42.820Z,24.17
2019-01-12T12:19:30.962Z,24.50
2019-01-12T12:22:18.952Z,25.93
2019-01-12T12:25:07.027Z,28.10
2019-01-12T12:27:55.184Z,25.40
2019-01-12T12:30:32.831Z,23.00
2019-01-12T12:33:03.505Z,31.10
2019-01-12T12:35:37.846Z,24.07
2019-01-12T12:38:07.761Z,23.03
2019-01-12T12:40:41.315Z,28.63
2019-01-12T12:43:10.522Z,23.70
2019-01-12T12:45:43.311Z,21.93
2019-01-12T12:48:14.648Z,24.63
2019-01-12T12:50:46.171Z,23.57
2019-01-12T12:53:15.870Z,26.70
2019-01-12T12:55:49.220Z,23.53
2019-01-12T12:58:18.955Z,22.43
2019-01-12T13:00:51.457Z,28.33
2019-01-12T13:03:21.175Z,26.10
2019-01-12T13:05:54.989Z,22.60
2019-01-12T13:08:25.100Z,19.33
2019-01-12T13:10:59.201Z,19.27
2019-01-12T13:13:28.273Z,25.43
2019-01-12T13:16:01.786Z,23.63
2019-01-12T13:18:31.507Z,22.20
2019-01-12T13:21:05.474Z,19.77
2019-01-12T13:23:35.588Z,25.90
2019-01-12T13:26:08.537Z,18.50
2019-01-12T13:28:37.549Z,18.83
2019-01-12T13:31:12.429Z,25.50
2019-01-12T13:33:42.132Z,16.83
2019-01-12T13:36:15.101Z,14.80
2019-01-12T13:38:44.825Z,18.10
2019-01-12T13:41:18.506Z,17.57
2019-01-12T13:43:48.224Z,18.17
2019-01-12T13:46:20.227Z,13.87
2019-01-12T13:48:50.244Z,14.27
2019-01-12T13:51:22.288Z,12.87
2019-01-12T13:53:52.337Z,12.50
2019-01-12T13:56:25.455Z,13.07
2019-01-12T13:58:55.225Z,13.80
2019-01-12T14:01:28.220Z,13.13
2019-01-12T14:03:58.002Z,16.27
2019-01-12T14:06:30.215Z,12.70
2019-01-12T14:08:59.503Z,14.40
2019-01-12T14:11:32.944Z,11.53
2019-01-12T14:14:01.948Z,10.60
2019-01-12T14:16:34.726Z,11.77
2019-01-12T14:19:04.430Z,10.13
2019-01-12T14:21:37.996Z,15.73
2019-01-12T14:24:07.964Z,9.93
2019-01-12T14:26:40.532Z,8.47
2019-01-12T14:29:09.808Z,8.03
2019-01-12T14:31:43.217Z,8.00
2019-01-12T14:34:14.315Z,9.43
2019-01-12T14:36:47.556Z,9.87
2019-01-12T14:39:16.599Z,8.37
2019-01-12T14:41:48.667Z,5.97
2019-01-12T14:44:17.668Z,8.23
2019-01-12T14:46:51.610Z,8.57
2019-01-12T14:49:41.788Z,8.53
2019-01-12T14:52:29.914Z,8.47
2019-01-12T14:55:19.631Z,7.60
2019-01-12T14:58:07.760Z,6.40
2019-01-12T15:01:14.631Z,8.10
2019-01-12T15:04:02.836Z,6.73
2019-01-12T15:10:03.689Z,7.27
2019-01-12T15:12:51.895Z,8.20
2019-01-12T15:15:22.232Z,7.03
2019-01-12T15:18:12.350Z,6.30
2019-01-12T15:21:01.052Z,7.50
2019-01-12T15:23:49.041Z,7.53
2019-01-12T15:26:37.127Z,5.80
2019-01-12T15:29:25.111Z,8.13
2019-01-12T15:32:18.826Z,4.87
2019-01-12T15:35:06.883Z,6.87
2019-01-12T15:37:55.015Z,7.00
2019-01-12T15:43:11.809Z,6.87
2019-01-12T15:45:59.829Z,6.87
2019-01-12T15:48:48.621Z,6.87
2019-01-12T15:51:18.599Z,6.27
2019-01-12T15:53:48.787Z,7.60
2019-01-12T15:56:18.537Z,9.37
2019-01-12T15:58:48.845Z,9.57
2019-01-12T16:01:18.603Z,10.20
2019-01-12T16:03:48.345Z,10.37
2019-01-12T16:06:17.738Z,11.17
2019-01-12T16:08:47.415Z,10.07
2019-01-12T16:11:17.157Z,9.60
2019-01-12T16:13:47.222Z,10.57
2019-01-12T16:16:16.917Z,12.03
2019-01-12T16:18:46.679Z,12.43
2019-01-12T16:21:16.741Z,13.27
2019-01-12T16:23:48.796Z,11.47
2019-01-12T16:26:18.501Z,10.43
2019-01-12T16:28:51.607Z,11.17
2019-01-12T16:31:20.620Z,10.33
2019-01-12T16:33:53.161Z,9.53
2019-01-12T16:36:23.198Z,8.50
2019-01-12T16:38:59.411Z,8.07
2019-01-12T16:41:30.220Z,10.57
2019-01-12T16:44:00.987Z,7.70
2019-01-12T16:46:30.025Z,8.13
2019-01-12T16:49:03.255Z,7.13
2019-01-12T16:51:32.589Z,8.20
2019-01-12T16:54:07.751Z,6.07
2019-01-12T16:56:37.527Z,6.17
2019-01-12T16:59:14.472Z,9.17
2019-01-12T17:01:44.157Z,9.80
2019-01-12T17:04:13.360Z,7.40
2019-01-12T17:06:43.091Z,9.10
2019-01-12T17:09:18.196Z,7.00
2019-01-12T17:11:47.904Z,4.57
2019-01-12T17:14:22.937Z,5.67
2019-01-12T17:16:52.237Z,8.30
2019-01-12T17:19:21.262Z,5.00
2019-01-12T17:21:50.996Z,5.23
2019-01-12T17:24:24.239Z,4.77
2019-01-12T17:26:53.282Z,5.80
2019-01-12T17:29:28.862Z,6.43
2019-01-12T17:32:01.118Z,4.73
2019-01-12T17:34:50.800Z,6.03
2019-01-12T17:37:17.040Z,5.43
2019-01-12T17:39:46.777Z,7.80
2019-01-12T17:42:17.020Z,4.17
2019-01-12T17:44:46.751Z,5.40
2019-01-12T17:47:16.467Z,5.60
2019-01-12T17:49:45.489Z,5.30
2019-01-12T17:52:15.198Z,2.77
2019-01-12T17:54:45.198Z,4.13
2019-01-12T17:57:14.212Z,7.50
2019-01-12T17:59:43.911Z,3.77
2019-01-12T18:02:13.430Z,4.43
2019-01-12T18:04:45.922Z,5.37
2019-01-12T18:07:15.621Z,4.50
2019-01-12T18:09:48.811Z,4.80
2019-01-12T18:12:18.500Z,5.23
2019-01-12T18:14:52.086Z,7.63
2019-01-12T18:17:22.157Z,8.77
2019-01-12T18:19:54.700Z,9.33
2019-01-12T18:22:24.409Z,37.17
2019-01-12T18:24:58.814Z,15.90
2019-01-12T18:27:28.100Z,51.60
2019-01-12T18:30:00.661Z,33.90
2019-01-12T18:32:29.708Z,16.93
2019-01-12T18:35:04.763Z,21.47
2019-01-12T18:37:34.477Z,20.40
2019-01-12T18:40:11.332Z,20.00
2019-01-12T18:42:41.084Z,26.13
2019-01-12T18:47:58.377Z,21.03
2019-01-12T19:01:46.304Z,18.93
2019-01-12T19:12:14.219Z,20.67
2019-01-12T19:15:02.265Z,20.00
2019-01-12T19:17:50.362Z,20.33
2019-01-12T19:20:38.351Z,21.83
2019-01-12T19:23:45.313Z,22.77
2019-01-12T19:28:56.854Z,19.60
2019-01-12T19:34:14.135Z,21.80
2019-01-12T19:39:32.037Z,19.30
2019-01-12T19:58:55.205Z,18.47
2019-01-12T20:01:43.204Z,19.03
2019-01-12T20:04:32.013Z,20.27
2019-01-12T20:07:20.073Z,16.27
2019-01-12T20:10:08.706Z,21.50
2019-01-12T20:12:38.685Z,22.93
2019-01-12T20:15:10.714Z,21.00
2019-01-12T20:17:39.764Z,24.47
2019-01-12T20:20:11.202Z,20.53
2019-01-12T20:22:40.231Z,26.40
2019-01-12T20:25:28.272Z,24.27
2019-01-12T20:28:16.264Z,23.77
2019-01-12T20:34:04.686Z,22.30
2019-01-12T20:36:52.826Z,23.53
2019-01-12T20:39:40.811Z,25.00
2019-01-12T20:42:28.903Z,25.30
2019-01-12T20:45:17.303Z,23.80
2019-01-12T20:48:09.036Z,18.53
2019-01-12T20:53:24.636Z,27.03
2019-01-12T20:58:41.669Z,21.63
2019-01-12T21:01:29.633Z,24.77
2019-01-12T21:04:17.610Z,25.83
2019-01-12T21:07:05.605Z,27.87
2019-01-12T21:09:53.605Z,26.00
2019-01-12T21:12:41.568Z,26.03
2019-01-12T21:15:48.499Z,26.63
2019-01-12T21:18:17.464Z,27.07
2019-01-12T21:20:47.406Z,27.70
2019-01-12T21:23:54.315Z,27.30
2019-01-12T21:26:42.969Z,25.00
2019-01-12T21:32:11.991Z,23.60
2019-01-12T21:35:00.037Z,28.77
2019-01-12T21:37:30.134Z,27.93
2019-01-12T21:39:59.150Z,22.43
2019-01-12T21:42:49.118Z,27.80
2019-01-12T21:45:48.713Z,22.03
2019-01-12T21:48:26.794Z,32.80
2019-01-12T21:51:14.743Z,19.40
2019-01-12T21:53:44.778Z,25.60
2019-01-12T21:56:32.796Z,25.07
2019-01-12T21:59:02.869Z,18.60
2019-01-12T22:01:50.886Z,26.03
2019-01-12T22:04:20.345Z,25.87
2019-01-12T22:06:50.049Z,26.80
2019-01-12T22:09:38.784Z,24.40
2019-01-12T22:12:26.807Z,20.67
2019-01-12T22:15:14.839Z,23.93
2019-01-12T22:17:44.548Z,30.37
2019-01-12T22:20:32.598Z,26.30
2019-01-12T22:23:20.610Z,23.73
2019-01-12T22:25:49.932Z,23.23
2019-01-12T22:28:19.638Z,29.37
2019-01-12T22:31:07.676Z,26.80
2019-01-12T22:33:37.388Z,29.20
2019-01-12T22:36:25.424Z,26.17
2019-01-12T22:39:13.441Z,28.80
2019-01-12T22:41:42.768Z,23.97
2019-01-12T22:44:30.767Z,35.03
2019-01-12T22:47:18.840Z,25.67
2019-01-12T22:49:48.545Z,26.40
2019-01-12T22:52:17.843Z,30.47
2019-01-12T22:54:55.966Z,27.37
2019-01-12T23:00:47.623Z,26.03
2019-01-12T23:03:35.732Z,28.43
2019-01-12T23:06:05.829Z,27.57
2019-01-12T23:08:54.499Z,23.03
2019-01-12T23:11:42.522Z,27.37
2019-01-12T23:14:11.927Z,28.13
2019-01-12T23:16:59.967Z,27.63
2019-01-12T23:19:47.965Z,37.10
2019-01-12T23:22:35.996Z,28.47
2019-01-12T23:25:24.003Z,21.50
2019-01-12T23:27:53.080Z,24.67
2019-01-12T23:30:41.090Z,25.63
2019-01-12T23:33:29.122Z,31.57
2019-01-12T23:36:17.807Z,26.73
2019-01-12T23:39:05.847Z,39.57
2019-01-12T23:41:35.858Z,26.87
2019-01-12T23:44:05.983Z,30.47
2019-01-12T23:46:54.029Z,29.50
2019-01-12T23:49:42.713Z,31.77
2019-01-12T23:52:12.728Z,31.30
2019-01-12T23:55:12.609Z,29.03
2019-01-12T23:57:51.383Z,35.23
